sensor_id;sensor_type;location;lat;lon;timestamp;temperature;humidity
5560;DHT22;2803;47.916;8.074;2022-11-24T00:00:10;9.40;99.90
5560;DHT22;2803;47.916;8.074;2022-11-24T00:02:38;9.20;99.90
5560;DHT22;2803;47.916;8.074;2022-11-24T00:05:06;9.00;99.90
5560;DHT22;2803;47.916;8.074;2022-11-24T00:07:33;9.40;99.90
5560;DHT22;2803;47.916;8.074;2022-11-24T00:09:59;9.60;99.90
5560;DHT22;2803;47.916;8.074;2022-11-24T00:12:26;9.80;99.90
5560;DHT22;2803;47.916;8.074;2022-11-24T00:14:53;9.80;99.90
5560;DHT22;2803;47.916;8.074;2022-11-24T00:17:20;10.20;99.90
5560;DHT22;2803;47.916;8.074;2022-11-24T00:19:46;9.60;99.90
5560;DHT22;2803;47.916;8.074;2022-11-24T00:22:14;9.70;99.90
5560;DHT22;2803;47.916;8.074;2022-11-24T00:24:41;9.60;99.90
5560;DHT22;2803;47.916;8.074;2022-11-24T00:27:07;9.80;99.90
5560;DHT22;2803;47.916;8.074;2022-11-24T00:29:34;10.00;99.90
5560;DHT22;2803;47.916;8.074;2022-11-24T00:32:00;9.90;99.90
5560;DHT22;2803;47.916;8.074;2022-11-24T00:34:30;9.40;99.90
5560;DHT22;2803;47.916;8.074;2022-11-24T00:36:57;9.20;99.90
5560;DHT22;2803;47.916;8.074;2022-11-24T00:39:26;9.30;99.90
5560;DHT22;2803;47.916;8.074;2022-11-24T00:41:52;9.40;99.90
5560;DHT22;2803;47.916;8.074;2022-11-24T00:44:19;9.10;99.90
5560;DHT22;2803;47.916;8.074;2022-11-24T00:46:45;9.10;99.90
5560;DHT22;2803;47.916;8.074;2022-11-24T00:49:12;8.90;99.90
5560;DHT22;2803;47.916;8.074;2022-11-24T00:51:39;9.00;99.90
5560;DHT22;2803;47.916;8.074;2022-11-24T00:54:05;8.80;99.90
5560;DHT22;2803;47.916;8.074;2022-11-24T00:56:33;8.80;99.90
5560;DHT22;2803;47.916;8.074;2022-11-24T00:59:00;9.00;99.90
5560;DHT22;2803;47.916;8.074;2022-11-24T01:01:28;9.00;99.90
5560;DHT22;2803;47.916;8.074;2022-11-24T01:03:55;8.80;99.90
5560;DHT22;2803;47.916;8.074;2022-11-24T01:06:24;8.90;99.90
5560;DHT22;2803;47.916;8.074;2022-11-24T01:08:51;9.30;99.90
5560;DHT22;2803;47.916;8.074;2022-11-24T01:11:19;9.10;99.90
5560;DHT22;2803;47.916;8.074;2022-11-24T01:13:50;8.90;99.90
5560;DHT22;2803;47.916;8.074;2022-11-24T01:16:19;9.10;99.90
5560;DHT22;2803;47.916;8.074;2022-11-24T01:18:46;9.50;99.90
5560;DHT22;2803;47.916;8.074;2022-11-24T01:21:13;9.60;99.90
5560;DHT22;2803;47.916;8.074;2022-11-24T01:23:40;9.80;99.90
5560;DHT22;2803;47.916;8.074;2022-11-24T01:26:08;9.70;99.90
5560;DHT22;2803;47.916;8.074;2022-11-24T01:28:35;9.90;99.90
5560;DHT22;2803;47.916;8.074;2022-11-24T01:31:04;10.00;99.90
5560;DHT22;2803;47.916;8.074;2022-11-24T01:33:32;9.60;99.90
5560;DHT22;2803;47.916;8.074;2022-11-24T01:35:59;9.40;99.90
5560;DHT22;2803;47.916;8.074;2022-11-24T01:38:26;9.40;99.90
5560;DHT22;2803;47.916;8.074;2022-11-24T01:41:00;9.60;99.90
5560;DHT22;2803;47.916;8.074;2022-11-24T01:43:27;9.50;99.90
5560;DHT22;2803;47.916;8.074;2022-11-24T01:45:54;9.70;99.90
5560;DHT22;2803;47.916;8.074;2022-11-24T01:48:26;9.80;99.90
5560;DHT22;2803;47.916;8.074;2022-11-24T01:50:57;9.50;99.90
5560;DHT22;2803;47.916;8.074;2022-11-24T01:53:29;9.50;99.90
5560;DHT22;2803;47.916;8.074;2022-11-24T01:55:56;9.20;99.90
5560;DHT22;2803;47.916;8.074;2022-11-24T01:58:26;9.60;99.90
5560;DHT22;2803;47.916;8.074;2022-11-24T02:00:54;9.40;99.90
5560;DHT22;2803;47.916;8.074;2022-11-24T02:03:25;9.30;99.90
5560;DHT22;2803;47.916;8.074;2022-11-24T02:05:56;9.30;99.90
5560;DHT22;2803;47.916;8.074;2022-11-24T02:08:29;9.30;99.90
5560;DHT22;2803;47.916;8.074;2022-11-24T02:11:00;9.40;99.90
5560;DHT22;2803;47.916;8.074;2022-11-24T02:13:27;9.60;99.90
5560;DHT22;2803;47.916;8.074;2022-11-24T02:15:54;9.40;99.90
5560;DHT22;2803;47.916;8.074;2022-11-24T02:18:21;9.20;99.90
5560;DHT22;2803;47.916;8.074;2022-11-24T02:20:49;9.40;99.90
5560;DHT22;2803;47.916;8.074;2022-11-24T02:23:22;9.60;99.90
5560;DHT22;2803;47.916;8.074;2022-11-24T02:25:56;9.60;99.90
5560;DHT22;2803;47.916;8.074;2022-11-24T02:28:28;9.60;99.90
5560;DHT22;2803;47.916;8.074;2022-11-24T02:30:56;10.00;99.90
5560;DHT22;2803;47.916;8.074;2022-11-24T02:33:24;10.00;99.90
5560;DHT22;2803;47.916;8.074;2022-11-24T02:35:50;10.40;99.90
5560;DHT22;2803;47.916;8.074;2022-11-24T02:38:18;10.80;99.90
5560;DHT22;2803;47.916;8.074;2022-11-24T02:40:46;11.00;99.90
5560;DHT22;2803;47.916;8.074;2022-11-24T02:43:16;10.20;99.90
5560;DHT22;2803;47.916;8.074;2022-11-24T02:45:46;10.50;99.90
5560;DHT22;2803;47.916;8.074;2022-11-24T02:48:13;10.60;99.90
5560;DHT22;2803;47.916;8.074;2022-11-24T02:50:39;10.90;99.90
5560;DHT22;2803;47.916;8.074;2022-11-24T02:53:06;10.90;99.90
5560;DHT22;2803;47.916;8.074;2022-11-24T02:55:33;11.10;99.90
5560;DHT22;2803;47.916;8.074;2022-11-24T02:57:59;11.20;99.90
5560;DHT22;2803;47.916;8.074;2022-11-24T03:00:26;11.00;99.90
5560;DHT22;2803;47.916;8.074;2022-11-24T03:02:54;11.10;99.90
5560;DHT22;2803;47.916;8.074;2022-11-24T03:05:21;11.00;99.90
5560;DHT22;2803;47.916;8.074;2022-11-24T03:07:48;11.00;99.90
5560;DHT22;2803;47.916;8.074;2022-11-24T03:10:15;11.00;99.90
5560;DHT22;2803;47.916;8.074;2022-11-24T03:12:41;10.90;99.90
5560;DHT22;2803;47.916;8.074;2022-11-24T03:15:09;10.80;99.90
5560;DHT22;2803;47.916;8.074;2022-11-24T03:17:35;10.80;99.90
5560;DHT22;2803;47.916;8.074;2022-11-24T03:20:04;10.90;99.90
5560;DHT22;2803;47.916;8.074;2022-11-24T03:22:30;10.60;99.90
5560;DHT22;2803;47.916;8.074;2022-11-24T03:24:57;10.30;99.90
5560;DHT22;2803;47.916;8.074;2022-11-24T03:27:24;10.50;99.90
5560;DHT22;2803;47.916;8.074;2022-11-24T03:29:50;10.20;99.90
5560;DHT22;2803;47.916;8.074;2022-11-24T03:32:17;10.30;99.90
5560;DHT22;2803;47.916;8.074;2022-11-24T03:34:44;10.10;99.90
5560;DHT22;2803;47.916;8.074;2022-11-24T03:37:11;10.00;99.90
5560;DHT22;2803;47.916;8.074;2022-11-24T03:39:38;10.10;99.90
5560;DHT22;2803;47.916;8.074;2022-11-24T03:42:05;10.00;99.90
5560;DHT22;2803;47.916;8.074;2022-11-24T03:44:31;10.10;99.90
5560;DHT22;2803;47.916;8.074;2022-11-24T03:46:58;10.00;99.90
5560;DHT22;2803;47.916;8.074;2022-11-24T03:49:25;9.70;99.90
5560;DHT22;2803;47.916;8.074;2022-11-24T03:51:51;9.90;99.90
5560;DHT22;2803;47.916;8.074;2022-11-24T03:54:19;10.10;99.90
5560;DHT22;2803;47.916;8.074;2022-11-24T03:56:46;10.20;99.90
5560;DHT22;2803;47.916;8.074;2022-11-24T03:59:12;10.10;99.90
5560;DHT22;2803;47.916;8.074;2022-11-24T04:01:39;10.00;99.90
5560;DHT22;2803;47.916;8.074;2022-11-24T04:04:06;9.80;99.90
5560;DHT22;2803;47.916;8.074;2022-11-24T04:06:33;9.90;99.90
5560;DHT22;2803;47.916;8.074;2022-11-24T04:08:59;10.00;99.90
5560;DHT22;2803;47.916;8.074;2022-11-24T04:11:27;10.00;99.90
5560;DHT22;2803;47.916;8.074;2022-11-24T04:14:08;9.80;99.90
5560;DHT22;2803;47.916;8.074;2022-11-24T04:16:34;9.30;99.90
5560;DHT22;2803;47.916;8.074;2022-11-24T04:19:01;9.50;99.90
5560;DHT22;2803;47.916;8.074;2022-11-24T04:21:28;9.50;99.90
5560;DHT22;2803;47.916;8.074;2022-11-24T04:23:55;9.80;99.90
5560;DHT22;2803;47.916;8.074;2022-11-24T04:26:21;9.80;99.90
5560;DHT22;2803;47.916;8.074;2022-11-24T04:28:49;9.90;99.90
5560;DHT22;2803;47.916;8.074;2022-11-24T04:31:16;10.10;99.90
5560;DHT22;2803;47.916;8.074;2022-11-24T04:33:43;10.10;99.90
5560;DHT22;2803;47.916;8.074;2022-11-24T04:36:09;9.90;99.90
5560;DHT22;2803;47.916;8.074;2022-11-24T04:38:36;9.70;99.90
5560;DHT22;2803;47.916;8.074;2022-11-24T04:41:03;9.70;99.90
5560;DHT22;2803;47.916;8.074;2022-11-24T04:43:31;9.60;99.90
5560;DHT22;2803;47.916;8.074;2022-11-24T04:46:00;9.90;99.90
5560;DHT22;2803;47.916;8.074;2022-11-24T04:48:27;9.90;99.90
5560;DHT22;2803;47.916;8.074;2022-11-24T04:50:53;10.20;99.90
5560;DHT22;2803;47.916;8.074;2022-11-24T04:53:21;10.20;99.90
5560;DHT22;2803;47.916;8.074;2022-11-24T04:55:48;10.20;99.90
5560;DHT22;2803;47.916;8.074;2022-11-24T04:58:14;10.50;99.90
5560;DHT22;2803;47.916;8.074;2022-11-24T05:00:41;10.30;99.90
5560;DHT22;2803;47.916;8.074;2022-11-24T05:03:09;9.70;99.90
5560;DHT22;2803;47.916;8.074;2022-11-24T05:05:35;10.00;99.90
5560;DHT22;2803;47.916;8.074;2022-11-24T05:08:02;10.30;99.90
5560;DHT22;2803;47.916;8.074;2022-11-24T05:10:29;10.40;99.90
5560;DHT22;2803;47.916;8.074;2022-11-24T05:13:04;10.60;99.90
5560;DHT22;2803;47.916;8.074;2022-11-24T05:15:32;10.40;99.90
5560;DHT22;2803;47.916;8.074;2022-11-24T05:17:58;10.30;99.90
5560;DHT22;2803;47.916;8.074;2022-11-24T05:20:26;10.40;99.90
5560;DHT22;2803;47.916;8.074;2022-11-24T05:22:53;10.50;99.90
5560;DHT22;2803;47.916;8.074;2022-11-24T05:25:20;10.10;99.90
5560;DHT22;2803;47.916;8.074;2022-11-24T05:27:46;10.10;99.90
5560;DHT22;2803;47.916;8.074;2022-11-24T05:30:13;9.70;99.90
5560;DHT22;2803;47.916;8.074;2022-11-24T05:32:39;9.80;99.90
5560;DHT22;2803;47.916;8.074;2022-11-24T05:35:07;9.60;99.90
5560;DHT22;2803;47.916;8.074;2022-11-24T05:37:36;9.90;99.90
5560;DHT22;2803;47.916;8.074;2022-11-24T05:40:04;10.10;99.90
5560;DHT22;2803;47.916;8.074;2022-11-24T05:42:31;9.30;99.90
5560;DHT22;2803;47.916;8.074;2022-11-24T05:45:13;9.10;99.90
5560;DHT22;2803;47.916;8.074;2022-11-24T05:47:41;9.30;99.90
5560;DHT22;2803;47.916;8.074;2022-11-24T05:50:09;9.70;99.90
5560;DHT22;2803;47.916;8.074;2022-11-24T05:52:38;9.80;99.90
5560;DHT22;2803;47.916;8.074;2022-11-24T05:55:06;9.90;99.90
5560;DHT22;2803;47.916;8.074;2022-11-24T05:57:33;9.90;99.90
5560;DHT22;2803;47.916;8.074;2022-11-24T05:59:59;10.10;99.90
5560;DHT22;2803;47.916;8.074;2022-11-24T06:02:26;9.50;99.90
5560;DHT22;2803;47.916;8.074;2022-11-24T06:04:53;9.90;99.90
5560;DHT22;2803;47.916;8.074;2022-11-24T06:07:19;10.30;99.90
5560;DHT22;2803;47.916;8.074;2022-11-24T06:09:47;10.50;99.90
5560;DHT22;2803;47.916;8.074;2022-11-24T06:12:14;10.50;99.90
5560;DHT22;2803;47.916;8.074;2022-11-24T06:14:40;10.40;99.90
5560;DHT22;2803;47.916;8.074;2022-11-24T06:17:09;10.40;99.90
5560;DHT22;2803;47.916;8.074;2022-11-24T06:19:35;10.40;99.90
5560;DHT22;2803;47.916;8.074;2022-11-24T06:22:02;10.50;99.90
5560;DHT22;2803;47.916;8.074;2022-11-24T06:24:29;10.60;99.90
5560;DHT22;2803;47.916;8.074;2022-11-24T06:26:57;10.20;99.90
5560;DHT22;2803;47.916;8.074;2022-11-24T06:29:23;10.40;99.90
5560;DHT22;2803;47.916;8.074;2022-11-24T06:31:50;10.50;99.90
5560;DHT22;2803;47.916;8.074;2022-11-24T06:34:17;10.30;99.90
5560;DHT22;2803;47.916;8.074;2022-11-24T06:36:43;10.30;99.90
5560;DHT22;2803;47.916;8.074;2022-11-24T06:39:11;10.20;99.90
5560;DHT22;2803;47.916;8.074;2022-11-24T06:41:38;10.50;99.90
5560;DHT22;2803;47.916;8.074;2022-11-24T06:44:06;10.60;99.90
5560;DHT22;2803;47.916;8.074;2022-11-24T06:46:33;10.20;99.90
5560;DHT22;2803;47.916;8.074;2022-11-24T06:48:59;9.60;99.90
5560;DHT22;2803;47.916;8.074;2022-11-24T06:51:26;9.90;99.90
5560;DHT22;2803;47.916;8.074;2022-11-24T06:53:53;10.20;99.90
5560;DHT22;2803;47.916;8.074;2022-11-24T06:56:20;10.30;99.90
5560;DHT22;2803;47.916;8.074;2022-11-24T06:58:49;10.10;99.90
5560;DHT22;2803;47.916;8.074;2022-11-24T07:01:19;10.20;99.90
5560;DHT22;2803;47.916;8.074;2022-11-24T07:03:46;10.10;99.90
5560;DHT22;2803;47.916;8.074;2022-11-24T07:06:13;10.30;99.90
5560;DHT22;2803;47.916;8.074;2022-11-24T07:08:40;10.40;99.90
5560;DHT22;2803;47.916;8.074;2022-11-24T07:11:08;10.10;99.90
5560;DHT22;2803;47.916;8.074;2022-11-24T07:13:35;10.40;99.90
5560;DHT22;2803;47.916;8.074;2022-11-24T07:16:10;10.40;99.90
5560;DHT22;2803;47.916;8.074;2022-11-24T07:18:38;10.30;99.90
5560;DHT22;2803;47.916;8.074;2022-11-24T07:21:05;10.20;99.90
5560;DHT22;2803;47.916;8.074;2022-11-24T07:23:32;10.20;99.90
5560;DHT22;2803;47.916;8.074;2022-11-24T07:26:01;10.20;99.90
5560;DHT22;2803;47.916;8.074;2022-11-24T07:28:27;10.20;99.90
5560;DHT22;2803;47.916;8.074;2022-11-24T07:30:54;10.00;99.90
5560;DHT22;2803;47.916;8.074;2022-11-24T07:33:21;9.80;99.90
5560;DHT22;2803;47.916;8.074;2022-11-24T07:35:51;10.00;99.90
5560;DHT22;2803;47.916;8.074;2022-11-24T07:38:17;9.60;99.90
5560;DHT22;2803;47.916;8.074;2022-11-24T07:40:44;10.00;99.90
5560;DHT22;2803;47.916;8.074;2022-11-24T07:43:11;10.10;99.90
5560;DHT22;2803;47.916;8.074;2022-11-24T07:45:38;9.80;99.90
5560;DHT22;2803;47.916;8.074;2022-11-24T07:48:05;10.10;99.90
5560;DHT22;2803;47.916;8.074;2022-11-24T07:50:31;10.40;99.90
5560;DHT22;2803;47.916;8.074;2022-11-24T07:53:01;10.60;99.90
5560;DHT22;2803;47.916;8.074;2022-11-24T07:55:28;10.70;99.90
5560;DHT22;2803;47.916;8.074;2022-11-24T07:57:58;10.80;99.90
5560;DHT22;2803;47.916;8.074;2022-11-24T08:00:25;10.30;99.90
5560;DHT22;2803;47.916;8.074;2022-11-24T08:02:52;10.50;99.90
5560;DHT22;2803;47.916;8.074;2022-11-24T08:05:19;10.60;99.90
5560;DHT22;2803;47.916;8.074;2022-11-24T08:07:46;10.70;99.90
5560;DHT22;2803;47.916;8.074;2022-11-24T08:10:14;10.50;99.90
5560;DHT22;2803;47.916;8.074;2022-11-24T08:12:41;10.60;99.90
5560;DHT22;2803;47.916;8.074;2022-11-24T08:15:08;10.60;99.90
5560;DHT22;2803;47.916;8.074;2022-11-24T08:17:35;10.30;99.90
5560;DHT22;2803;47.916;8.074;2022-11-24T08:20:02;10.10;99.90
5560;DHT22;2803;47.916;8.074;2022-11-24T08:22:28;9.70;99.90
5560;DHT22;2803;47.916;8.074;2022-11-24T08:24:55;9.60;99.90
5560;DHT22;2803;47.916;8.074;2022-11-24T08:27:23;9.10;99.90
5560;DHT22;2803;47.916;8.074;2022-11-24T08:29:49;9.40;99.90
5560;DHT22;2803;47.916;8.074;2022-11-24T08:32:16;9.30;99.90
5560;DHT22;2803;47.916;8.074;2022-11-24T08:34:42;9.50;99.90
5560;DHT22;2803;47.916;8.074;2022-11-24T08:37:09;9.20;99.90
5560;DHT22;2803;47.916;8.074;2022-11-24T08:39:36;9.30;99.90
5560;DHT22;2803;47.916;8.074;2022-11-24T08:42:03;9.40;99.90
5560;DHT22;2803;47.916;8.074;2022-11-24T08:44:30;9.60;99.90
5560;DHT22;2803;47.916;8.074;2022-11-24T08:46:57;9.30;99.90
5560;DHT22;2803;47.916;8.074;2022-11-24T08:49:24;9.20;99.90
5560;DHT22;2803;47.916;8.074;2022-11-24T08:51:50;9.30;99.90
5560;DHT22;2803;47.916;8.074;2022-11-24T08:54:17;9.30;99.90
5560;DHT22;2803;47.916;8.074;2022-11-24T08:56:44;9.20;99.90
5560;DHT22;2803;47.916;8.074;2022-11-24T08:59:12;9.30;99.90
5560;DHT22;2803;47.916;8.074;2022-11-24T09:01:40;9.20;99.90
5560;DHT22;2803;47.916;8.074;2022-11-24T09:04:07;9.60;99.90
5560;DHT22;2803;47.916;8.074;2022-11-24T09:06:33;9.50;99.90
5560;DHT22;2803;47.916;8.074;2022-11-24T09:09:00;9.60;99.90
5560;DHT22;2803;47.916;8.074;2022-11-24T09:11:27;10.00;99.90
5560;DHT22;2803;47.916;8.074;2022-11-24T09:13:55;10.00;99.90
5560;DHT22;2803;47.916;8.074;2022-11-24T09:16:24;10.60;99.90
5560;DHT22;2803;47.916;8.074;2022-11-24T09:18:57;10.30;99.90
5560;DHT22;2803;47.916;8.074;2022-11-24T09:21:24;10.20;99.90
5560;DHT22;2803;47.916;8.074;2022-11-24T09:23:51;10.10;99.90
5560;DHT22;2803;47.916;8.074;2022-11-24T09:26:21;10.20;99.90
5560;DHT22;2803;47.916;8.074;2022-11-24T09:28:49;9.80;99.90
5560;DHT22;2803;47.916;8.074;2022-11-24T09:31:20;9.90;99.90
5560;DHT22;2803;47.916;8.074;2022-11-24T09:33:47;9.90;99.90
5560;DHT22;2803;47.916;8.074;2022-11-24T09:36:15;10.10;99.90
5560;DHT22;2803;47.916;8.074;2022-11-24T09:38:42;10.20;99.90
5560;DHT22;2803;47.916;8.074;2022-11-24T09:41:25;10.20;99.90
5560;DHT22;2803;47.916;8.074;2022-11-24T09:44:01;10.30;99.90
5560;DHT22;2803;47.916;8.074;2022-11-24T09:46:37;10.10;99.90
5560;DHT22;2803;47.916;8.074;2022-11-24T09:49:07;10.30;99.90
5560;DHT22;2803;47.916;8.074;2022-11-24T09:51:38;9.90;99.90
5560;DHT22;2803;47.916;8.074;2022-11-24T09:54:11;10.10;99.90
5560;DHT22;2803;47.916;8.074;2022-11-24T09:56:39;10.00;99.90
5560;DHT22;2803;47.916;8.074;2022-11-24T09:59:13;10.20;99.90
5560;DHT22;2803;47.916;8.074;2022-11-24T10:01:42;10.20;99.90
5560;DHT22;2803;47.916;8.074;2022-11-24T10:04:14;10.50;99.90
5560;DHT22;2803;47.916;8.074;2022-11-24T10:06:47;10.60;99.90
5560;DHT22;2803;47.916;8.074;2022-11-24T10:09:26;10.60;99.90
5560;DHT22;2803;47.916;8.074;2022-11-24T10:12:03;10.40;99.90
5560;DHT22;2803;47.916;8.074;2022-11-24T10:14:45;10.70;99.90
5560;DHT22;2803;47.916;8.074;2022-11-24T10:17:24;10.60;99.90
5560;DHT22;2803;47.916;8.074;2022-11-24T10:19:59;10.60;99.90
5560;DHT22;2803;47.916;8.074;2022-11-24T10:22:38;10.10;99.90
5560;DHT22;2803;47.916;8.074;2022-11-24T10:25:12;10.00;99.90
5560;DHT22;2803;47.916;8.074;2022-11-24T10:27:43;10.10;99.90
5560;DHT22;2803;47.916;8.074;2022-11-24T10:30:14;10.20;99.90
5560;DHT22;2803;47.916;8.074;2022-11-24T10:32:44;10.50;99.90
5560;DHT22;2803;47.916;8.074;2022-11-24T10:35:15;10.30;99.90
5560;DHT22;2803;47.916;8.074;2022-11-24T10:37:50;10.30;99.90
5560;DHT22;2803;47.916;8.074;2022-11-24T10:40:25;11.30;99.90
5560;DHT22;2803;47.916;8.074;2022-11-24T10:42:53;11.70;99.90
5560;DHT22;2803;47.916;8.074;2022-11-24T10:45:21;12.50;99.90
5560;DHT22;2803;47.916;8.074;2022-11-24T10:47:48;12.40;99.90
5560;DHT22;2803;47.916;8.074;2022-11-24T10:50:20;12.70;99.90
5560;DHT22;2803;47.916;8.074;2022-11-24T10:52:55;13.70;99.90
5560;DHT22;2803;47.916;8.074;2022-11-24T10:55:25;14.30;99.90
5560;DHT22;2803;47.916;8.074;2022-11-24T10:57:53;15.40;99.90
5560;DHT22;2803;47.916;8.074;2022-11-24T11:00:34;16.80;99.90
5560;DHT22;2803;47.916;8.074;2022-11-24T11:03:13;17.80;99.90
5560;DHT22;2803;47.916;8.074;2022-11-24T11:05:42;18.40;99.30
5560;DHT22;2803;47.916;8.074;2022-11-24T11:08:21;18.00;98.40
5560;DHT22;2803;47.916;8.074;2022-11-24T11:10:50;18.10;99.10
5560;DHT22;2803;47.916;8.074;2022-11-24T11:13:27;17.30;98.80
5560;DHT22;2803;47.916;8.074;2022-11-24T11:15:55;16.80;99.20
5560;DHT22;2803;47.916;8.074;2022-11-24T11:18:28;16.00;99.90
5560;DHT22;2803;47.916;8.074;2022-11-24T11:20:57;15.10;99.90
5560;DHT22;2803;47.916;8.074;2022-11-24T11:23:29;14.30;99.90
5560;DHT22;2803;47.916;8.074;2022-11-24T11:26:22;13.40;99.90
5560;DHT22;2803;47.916;8.074;2022-11-24T11:28:57;13.10;99.90
5560;DHT22;2803;47.916;8.074;2022-11-24T11:31:25;12.60;99.90
5560;DHT22;2803;47.916;8.074;2022-11-24T11:33:55;12.30;99.90
5560;DHT22;2803;47.916;8.074;2022-11-24T11:36:22;11.70;99.90
5560;DHT22;2803;47.916;8.074;2022-11-24T11:38:52;11.40;99.90
5560;DHT22;2803;47.916;8.074;2022-11-24T11:41:23;11.50;99.90
5560;DHT22;2803;47.916;8.074;2022-11-24T11:44:00;11.40;99.90
5560;DHT22;2803;47.916;8.074;2022-11-24T11:46:30;11.00;99.90
5560;DHT22;2803;47.916;8.074;2022-11-24T11:48:57;10.80;99.90
5560;DHT22;2803;47.916;8.074;2022-11-24T11:51:35;10.80;99.90
5560;DHT22;2803;47.916;8.074;2022-11-24T11:54:09;10.40;99.90
5560;DHT22;2803;47.916;8.074;2022-11-24T11:56:41;10.50;99.90
5560;DHT22;2803;47.916;8.074;2022-11-24T11:59:20;10.50;99.90
5560;DHT22;2803;47.916;8.074;2022-11-24T12:02:09;10.30;99.90
5560;DHT22;2803;47.916;8.074;2022-11-24T12:04:47;10.50;99.90
5560;DHT22;2803;47.916;8.074;2022-11-24T12:07:29;9.80;99.90
5560;DHT22;2803;47.916;8.074;2022-11-24T12:10:08;9.50;99.90
5560;DHT22;2803;47.916;8.074;2022-11-24T12:12:48;9.70;99.90
5560;DHT22;2803;47.916;8.074;2022-11-24T12:15:22;9.80;99.90
5560;DHT22;2803;47.916;8.074;2022-11-24T12:17:56;9.70;99.90
5560;DHT22;2803;47.916;8.074;2022-11-24T12:20:39;10.10;99.90
5560;DHT22;2803;47.916;8.074;2022-11-24T12:23:17;9.90;99.90
5560;DHT22;2803;47.916;8.074;2022-11-24T12:25:53;9.90;99.90
5560;DHT22;2803;47.916;8.074;2022-11-24T12:28:29;9.80;99.90
5560;DHT22;2803;47.916;8.074;2022-11-24T12:31:03;9.80;99.90
5560;DHT22;2803;47.916;8.074;2022-11-24T12:33:43;10.30;99.90
5560;DHT22;2803;47.916;8.074;2022-11-24T12:36:30;10.10;99.90
5560;DHT22;2803;47.916;8.074;2022-11-24T12:39:04;10.20;99.90
5560;DHT22;2803;47.916;8.074;2022-11-24T12:41:43;10.20;99.90
5560;DHT22;2803;47.916;8.074;2022-11-24T12:44:34;10.20;99.90
5560;DHT22;2803;47.916;8.074;2022-11-24T12:47:12;10.10;99.90
5560;DHT22;2803;47.916;8.074;2022-11-24T12:49:49;10.40;99.90
5560;DHT22;2803;47.916;8.074;2022-11-24T12:52:24;10.50;99.90
5560;DHT22;2803;47.916;8.074;2022-11-24T12:54:52;10.40;99.90
5560;DHT22;2803;47.916;8.074;2022-11-24T12:57:25;10.60;99.90
5560;DHT22;2803;47.916;8.074;2022-11-24T12:59:58;10.20;99.90
5560;DHT22;2803;47.916;8.074;2022-11-24T13:02:35;10.30;99.90
5560;DHT22;2803;47.916;8.074;2022-11-24T13:05:13;10.30;99.90
5560;DHT22;2803;47.916;8.074;2022-11-24T13:07:46;10.60;99.90
5560;DHT22;2803;47.916;8.074;2022-11-24T13:10:29;10.20;99.90
5560;DHT22;2803;47.916;8.074;2022-11-24T13:12:59;10.20;99.90
5560;DHT22;2803;47.916;8.074;2022-11-24T13:15:26;10.60;99.90
5560;DHT22;2803;47.916;8.074;2022-11-24T13:17:54;10.50;99.90
5560;DHT22;2803;47.916;8.074;2022-11-24T13:20:25;10.70;99.90
5560;DHT22;2803;47.916;8.074;2022-11-24T13:22:53;10.60;99.90
5560;DHT22;2803;47.916;8.074;2022-11-24T13:25:22;10.80;99.90
5560;DHT22;2803;47.916;8.074;2022-11-24T13:27:50;11.20;99.90
5560;DHT22;2803;47.916;8.074;2022-11-24T13:33:28;11.00;99.90
5560;DHT22;2803;47.916;8.074;2022-11-24T13:38:53;10.90;99.90
5560;DHT22;2803;47.916;8.074;2022-11-24T13:44:22;10.10;99.90
5560;DHT22;2803;47.916;8.074;2022-11-24T13:46:57;10.70;99.90
5560;DHT22;2803;47.916;8.074;2022-11-24T13:49:36;11.10;99.90
5560;DHT22;2803;47.916;8.074;2022-11-24T13:54:59;11.30;99.90
5560;DHT22;2803;47.916;8.074;2022-11-24T13:57:34;11.20;99.90
5560;DHT22;2803;47.916;8.074;2022-11-24T14:00:03;11.10;99.90
5560;DHT22;2803;47.916;8.074;2022-11-24T14:02:30;11.30;99.90
5560;DHT22;2803;47.916;8.074;2022-11-24T14:05:00;11.40;99.90
5560;DHT22;2803;47.916;8.074;2022-11-24T14:07:28;11.40;99.90
5560;DHT22;2803;47.916;8.074;2022-11-24T14:09:55;11.20;99.90
5560;DHT22;2803;47.916;8.074;2022-11-24T14:12:22;11.20;99.90
5560;DHT22;2803;47.916;8.074;2022-11-24T14:14:51;11.40;99.90
5560;DHT22;2803;47.916;8.074;2022-11-24T14:17:21;11.40;99.90
5560;DHT22;2803;47.916;8.074;2022-11-24T14:19:49;11.20;99.90
5560;DHT22;2803;47.916;8.074;2022-11-24T14:22:19;11.40;99.90
5560;DHT22;2803;47.916;8.074;2022-11-24T14:24:51;11.60;99.90
5560;DHT22;2803;47.916;8.074;2022-11-24T14:27:23;11.60;99.90
5560;DHT22;2803;47.916;8.074;2022-11-24T14:29:53;11.70;99.90
5560;DHT22;2803;47.916;8.074;2022-11-24T14:32:20;11.40;99.90
5560;DHT22;2803;47.916;8.074;2022-11-24T14:34:47;11.20;99.90
5560;DHT22;2803;47.916;8.074;2022-11-24T14:37:13;11.30;99.90
5560;DHT22;2803;47.916;8.074;2022-11-24T14:39:42;11.30;99.90
5560;DHT22;2803;47.916;8.074;2022-11-24T14:42:16;11.20;99.90
5560;DHT22;2803;47.916;8.074;2022-11-24T14:44:47;11.20;99.90
5560;DHT22;2803;47.916;8.074;2022-11-24T14:47:18;11.00;99.90
5560;DHT22;2803;47.916;8.074;2022-11-24T14:49:46;10.80;99.90
5560;DHT22;2803;47.916;8.074;2022-11-24T14:52:16;11.00;99.90
5560;DHT22;2803;47.916;8.074;2022-11-24T14:54:48;11.00;99.90
5560;DHT22;2803;47.916;8.074;2022-11-24T14:57:24;11.00;99.90
5560;DHT22;2803;47.916;8.074;2022-11-24T15:00:16;11.20;99.90
5560;DHT22;2803;47.916;8.074;2022-11-24T15:02:45;11.30;99.90
5560;DHT22;2803;47.916;8.074;2022-11-24T15:05:14;11.50;99.90
5560;DHT22;2803;47.916;8.074;2022-11-24T15:07:43;11.60;99.90
5560;DHT22;2803;47.916;8.074;2022-11-24T15:10:21;11.60;99.90
5560;DHT22;2803;47.916;8.074;2022-11-24T15:12:52;11.60;99.90
5560;DHT22;2803;47.916;8.074;2022-11-24T15:15:23;11.30;99.90
5560;DHT22;2803;47.916;8.074;2022-11-24T15:17:53;10.70;99.90
5560;DHT22;2803;47.916;8.074;2022-11-24T15:20:25;10.70;99.90
5560;DHT22;2803;47.916;8.074;2022-11-24T15:23:11;10.90;99.90
5560;DHT22;2803;47.916;8.074;2022-11-24T15:25:39;11.00;99.90
5560;DHT22;2803;47.916;8.074;2022-11-24T15:28:07;11.00;99.90
5560;DHT22;2803;47.916;8.074;2022-11-24T15:30:34;10.90;99.90
5560;DHT22;2803;47.916;8.074;2022-11-24T15:33:02;10.40;99.90
5560;DHT22;2803;47.916;8.074;2022-11-24T15:35:30;10.20;99.90
5560;DHT22;2803;47.916;8.074;2022-11-24T15:37:57;10.50;99.90
5560;DHT22;2803;47.916;8.074;2022-11-24T15:40:24;10.60;99.90
5560;DHT22;2803;47.916;8.074;2022-11-24T15:42:53;10.30;99.90
5560;DHT22;2803;47.916;8.074;2022-11-24T15:45:21;10.30;99.90
5560;DHT22;2803;47.916;8.074;2022-11-24T15:47:48;10.30;99.90
5560;DHT22;2803;47.916;8.074;2022-11-24T15:50:15;10.10;99.90
5560;DHT22;2803;47.916;8.074;2022-11-24T15:52:43;10.10;99.90
5560;DHT22;2803;47.916;8.074;2022-11-24T15:55:15;9.90;99.90
5560;DHT22;2803;47.916;8.074;2022-11-24T15:57:43;10.10;99.90
5560;DHT22;2803;47.916;8.074;2022-11-24T16:00:16;10.00;99.90
5560;DHT22;2803;47.916;8.074;2022-11-24T16:02:43;10.00;99.90
5560;DHT22;2803;47.916;8.074;2022-11-24T16:05:11;9.80;99.90
5560;DHT22;2803;47.916;8.074;2022-11-24T16:07:38;9.00;99.90
5560;DHT22;2803;47.916;8.074;2022-11-24T16:10:05;8.80;99.90
5560;DHT22;2803;47.916;8.074;2022-11-24T16:12:32;9.00;99.90
5560;DHT22;2803;47.916;8.074;2022-11-24T16:15:00;9.30;99.90
5560;DHT22;2803;47.916;8.074;2022-11-24T16:17:28;9.40;99.90
5560;DHT22;2803;47.916;8.074;2022-11-24T16:19:55;9.30;99.90
5560;DHT22;2803;47.916;8.074;2022-11-24T16:22:21;9.20;99.90
5560;DHT22;2803;47.916;8.074;2022-11-24T16:24:48;9.30;99.90
5560;DHT22;2803;47.916;8.074;2022-11-24T16:27:15;9.40;99.90
5560;DHT22;2803;47.916;8.074;2022-11-24T16:29:41;8.70;99.90
5560;DHT22;2803;47.916;8.074;2022-11-24T16:32:08;8.70;99.90